Time;durP1;ratioP1;P1;durP2;ratioP2;P2;SDS_P1;SDS_P2;PMS_P1;PMS_P2;Temp;Humidity;BMP_temperature;BMP_pressure;BME280_temperature;BME280_humidity;BME280_pressure;Samples;Min_cycle;Max_cycle;Signal;HPM_P1;HPM_P2
2022/09/17 00:01:52;;;;;;;6.37;4.10;;;;;;;12.09;82.25;99364.42;1621198;88;21483;-68
2022/09/17 00:04:22;;;;;;;6.37;3.80;;;;;;;12.04;82.40;99365.11;1615533;86;21058;-69
2022/09/17 00:06:52;;;;;;;8.35;3.98;;;;;;;11.97;82.68;99363.83;1631714;88;21055;-68
2022/09/17 00:09:23;;;;;;;7.17;4.03;;;;;;;11.97;83.04;99350.64;1631905;88;21142;-67
2022/09/17 00:11:52;;;;;;;7.30;4.05;;;;;;;12.00;83.26;99337.29;1631819;88;21110;-70
2022/09/17 00:14:23;;;;;;;7.22;4.05;;;;;;;12.06;83.45;99338.27;1631630;88;21055;-69
2022/09/17 00:16:52;;;;;;;7.50;4.20;;;;;;;12.08;83.38;99332.54;1632234;86;21059;-69
2022/09/17 00:19:24;;;;;;;6.37;4.22;;;;;;;12.08;83.32;99342.98;1584996;88;21071;-68
2022/09/17 00:21:53;;;;;;;8.13;4.28;;;;;;;12.14;83.33;99332.44;1631608;88;21024;-69
2022/09/17 00:24:22;;;;;;;7.58;4.22;;;;;;;12.20;83.22;99324.64;1631698;88;21063;-69
2022/09/17 00:26:53;;;;;;;6.50;4.20;;;;;;;12.25;83.07;99312.95;1631826;88;21222;-69
2022/09/17 00:29:24;;;;;;;6.70;4.47;;;;;;;12.27;83.02;99312.17;1631727;88;21090;-70
2022/09/17 00:31:54;;;;;;;7.22;4.47;;;;;;;12.28;83.00;99313.85;1631902;88;21181;-68
2022/09/17 00:34:24;;;;;;;6.62;4.15;;;;;;;12.30;82.93;99329.56;1631712;86;21067;-69
2022/09/17 00:36:54;;;;;;;6.05;4.20;;;;;;;12.29;82.89;99334.75;1631712;87;21039;-69
2022/09/17 00:39:24;;;;;;;5.85;4.25;;;;;;;12.24;82.93;99338.73;1631715;87;21091;-69
2022/09/17 00:41:54;;;;;;;7.05;4.62;;;;;;;12.21;83.10;99337.83;1631580;88;21571;-68
2022/09/17 00:44:52;;;;;;;8.18;4.55;;;;;;;12.20;83.24;99325.17;1631772;88;21063;-69
2022/09/17 00:47:28;;;;;;;;;;;;;;;12.24;83.27;99334.08;1634218;88;21119;-69
2022/09/17 00:50:31;;;;;;;8.30;4.10;;;;;;;12.23;83.28;99338.44;1632097;88;20206;-68
2022/09/17 00:53:09;;;;;;;7.15;4.67;;;;;;;12.21;83.30;99342.79;1631536;88;21149;-68
2022/09/17 00:55:48;;;;;;;8.98;4.25;;;;;;;12.21;83.46;99346.91;1631471;88;21480;-69
2022/09/17 00:58:18;;;;;;;7.67;4.60;;;;;;;12.23;83.43;99345.30;1631888;88;21615;-68
2022/09/17 01:00:47;;;;;;;7.45;4.58;;;;;;;12.22;83.35;99339.51;1658316;86;21138;-68
2022/09/17 01:03:18;;;;;;;7.45;4.22;;;;;;;12.21;83.32;99330.97;1659899;86;21557;-69
2022/09/17 01:06:16;;;;;;;7.30;4.97;;;;;;;12.21;83.39;99346.07;1659881;86;21070;-68
2022/09/17 01:08:55;;;;;;;7.62;4.67;;;;;;;12.23;83.38;99344.77;1619217;88;21508;-69
2022/09/17 01:12:05;;;;;;;7.55;4.70;;;;;;;12.24;83.51;99349.72;1628192;87;21067;-68
2022/09/17 01:15:19;;;;;;;7.62;4.50;;;;;;;12.23;83.44;99359.03;1599108;89;21086;-69
2022/09/17 01:18:31;;;;;;;8.78;4.33;;;;;;;12.16;83.68;99349.52;1601145;90;21067;-69
2022/09/17 01:21:25;;;;;;;6.95;4.47;;;;;;;12.17;83.89;99343.49;1574721;91;21523;-68
2022/09/17 01:24:18;;;;;;;6.70;4.40;;;;;;;12.21;83.94;99354.31;1600507;88;21117;-70
2022/09/17 01:27:28;;;;;;;9.10;4.72;;;;;;;12.22;83.96;99362.84;1603567;89;21551;-69
2022/09/17 01:30:20;;;;;;;6.65;4.25;;;;;;;12.21;83.95;99362.02;1581674;90;21051;-70
2022/09/17 01:33:22;;;;;;;8.65;4.12;;;;;;;12.23;84.04;99368.11;1579784;90;21077;-69
2022/09/17 01:36:15;;;;;;;6.60;4.37;;;;;;;12.26;84.20;99369.02;1574720;91;21066;-70
2022/09/17 01:39:11;;;;;;;7.10;4.40;;;;;;;12.26;84.27;99357.19;1600912;90;21160;-68
2022/09/17 01:41:52;;;;;;;8.98;4.12;;;;;;;12.23;84.41;99360.41;1574551;91;21114;-68
2022/09/17 01:44:44;;;;;;;8.45;4.60;;;;;;;12.25;84.62;99359.64;1598846;89;21035;-69
2022/09/17 01:47:30;;;;;;;9.08;4.30;;;;;;;12.27;84.54;99367.94;1575400;89;21158;-69
2022/09/17 01:50:23;;;;;;;6.30;3.97;;;;;;;12.28;84.54;99373.73;1589635;88;21043;-68
2022/09/17 01:52:53;;;;;;;6.75;4.15;;;;;;;12.32;84.61;99378.23;1633697;88;21035;-69
2022/09/17 01:55:27;;;;;;;7.70;4.03;;;;;;;12.37;84.66;99381.98;1633768;87;21122;-68
2022/09/17 01:58:03;;;;;;;5.53;4.00;;;;;;;12.38;84.53;99378.16;1633576;88;21019;-69
2022/09/17 02:00:34;;;;;;;6.28;4.08;;;;;;;12.39;84.60;99366.63;1633747;88;21138;-68
2022/09/17 02:03:30;;;;;;;6.30;3.62;;;;;;;12.43;84.62;99375.24;1633516;88;21055;-68
2022/09/17 02:06:06;;;;;;;7.12;3.72;;;;;;;12.47;84.59;99370.41;1633628;88;21052;-68
2022/09/17 02:08:57;;;;;;;6.40;4.17;;;;;;;12.49;84.68;99361.94;1633651;87;21194;-68
2022/09/17 02:11:28;;;;;;;6.35;3.55;;;;;;;12.48;84.72;99362.48;1633764;88;21066;-68
2022/09/17 02:14:07;;;;;;;6.75;3.50;;;;;;;12.52;84.77;99359.56;1634102;86;21055;-68
2022/09/17 02:16:47;;;;;;;8.73;3.75;;;;;;;12.57;84.73;99356.94;1633722;87;21047;-69
2022/09/17 02:19:20;;;;;;;5.20;3.58;;;;;;;12.60;84.62;99354.25;1633669;88;21094;-67
2022/09/17 02:22:21;;;;;;;9.08;4.28;;;;;;;12.62;84.67;99360.35;1633649;88;21134;-68
2022/09/17 02:25:10;;;;;;;6.97;3.95;;;;;;;12.64;84.59;99367.28;1634173;86;21098;-70
2022/09/17 02:28:12;;;;;;;4.87;3.22;;;;;;;12.70;84.48;99371.00;1633593;88;22134;-70
2022/09/17 02:30:44;;;;;;;4.62;3.70;;;;;;;12.71;84.37;99374.05;1633624;87;21074;-68
2022/09/17 02:33:14;;;;;;;4.47;3.30;;;;;;;12.72;84.43;99372.97;1579173;89;21095;-67
2022/09/17 02:35:45;;;;;;;4.60;3.35;;;;;;;12.72;84.69;99371.59;1577112;91;21151;-70
2022/09/17 02:38:26;;;;;;;6.17;3.42;;;;;;;12.72;84.82;99375.72;1557935;91;21087;-67
2022/09/17 02:41:07;;;;;;;6.45;3.60;;;;;;;12.75;84.87;99379.91;1577398;91;21120;-70
2022/09/17 02:44:11;;;;;;;7.33;3.58;;;;;;;12.76;84.89;99367.84;1577469;89;21087;-68
2022/09/17 02:47:08;;;;;;;6.45;3.80;;;;;;;12.77;85.00;99366.77;1580688;89;21129;-68
2022/09/17 02:50:03;;;;;;;;;;;;;;;12.77;85.03;99364.02;1586158;90;21051;-68
2022/09/17 02:52:47;;;;;;;7.40;3.95;;;;;;;12.75;85.13;99358.76;1648579;86;20255;-69
2022/09/17 02:55:28;;;;;;;6.03;3.85;;;;;;;12.74;85.22;99352.96;1670214;84;21118;-68
2022/09/17 02:58:14;;;;;;;6.08;3.70;;;;;;;12.75;85.18;99351.05;1671050;86;21027;-68
2022/09/17 03:00:44;;;;;;;6.35;4.00;;;;;;;12.75;85.09;99331.27;1659466;85;21776;-69
2022/09/17 03:03:25;;;;;;;7.28;4.30;;;;;;;12.76;85.03;99327.98;1642611;87;21075;-69
2022/09/17 03:05:57;;;;;;;7.70;4.83;;;;;;;12.74;84.94;99329.59;1643454;86;21105;-69
2022/09/17 03:08:33;;;;;;;7.10;4.92;;;;;;;12.72;84.92;99331.75;1645293;86;21022;-68
2022/09/17 03:11:04;;;;;;;8.58;5.10;;;;;;;12.69;84.79;99345.97;1671628;86;21118;-68
2022/09/17 03:13:36;;;;;;;7.72;4.10;;;;;;;12.68;84.88;99340.17;1671154;86;21031;-69
2022/09/17 03:16:06;;;;;;;10.05;4.90;;;;;;;12.69;85.00;99345.97;1656469;85;21019;-68
2022/09/17 03:18:37;;;;;;;7.30;4.95;;;;;;;12.69;85.03;99343.22;1642821;86;21031;-69
2022/09/17 03:21:07;;;;;;;7.90;4.75;;;;;;;12.68;85.05;99352.00;1643205;86;21087;-68
2022/09/17 03:23:36;;;;;;;7.45;5.12;;;;;;;12.69;85.12;99356.95;1642445;86;21090;-67
2022/09/17 03:26:06;;;;;;;8.25;5.28;;;;;;;12.69;85.06;99360.55;1642946;86;21099;-68
2022/09/17 03:28:37;;;;;;;6.62;5.00;;;;;;;12.68;85.12;99360.24;1642858;87;21086;-68
2022/09/17 03:31:06;;;;;;;10.65;5.35;;;;;;;12.69;85.08;99355.58;1642568;87;21361;-68
2022/09/17 03:33:36;;;;;;;8.43;5.97;;;;;;;12.69;85.19;99345.97;1642490;87;21054;-67
2022/09/17 03:36:06;;;;;;;9.60;6.10;;;;;;;12.75;85.20;99350.51;1642689;87;21066;-69
2022/09/17 03:38:37;;;;;;;8.38;6.20;;;;;;;12.79;85.06;99353.09;1642576;87;21082;-68
2022/09/17 03:41:06;;;;;;;8.25;5.80;;;;;;;12.83;84.93;99350.70;1658605;85;21047;-69
2022/09/17 03:43:38;;;;;;;11.85;5.78;;;;;;;12.83;84.84;99355.66;1642509;87;21129;-68
2022/09/17 03:46:09;;;;;;;8.38;5.97;;;;;;;12.86;84.80;99364.80;1642747;86;21068;-68
2022/09/17 03:48:39;;;;;;;8.23;5.67;;;;;;;12.91;84.64;99359.96;1633415;88;21048;-67
2022/09/17 03:51:10;;;;;;;8.78;6.15;;;;;;;12.95;84.45;99361.99;1633435;88;21590;-68
2022/09/17 03:53:40;;;;;;;8.98;6.00;;;;;;;12.98;84.35;99367.55;1633599;87;21529;-68
2022/09/17 03:56:10;;;;;;;8.55;5.85;;;;;;;12.98;84.27;99368.39;1633410;88;21056;-68
2022/09/17 03:58:41;;;;;;;7.42;5.40;;;;;;;12.97;84.05;99371.38;1633665;86;21513;-68
2022/09/17 04:01:12;;;;;;;7.62;5.70;;;;;;;12.94;84.10;99364.45;1634784;87;21055;-67
2022/09/17 04:03:43;;;;;;;10.48;6.03;;;;;;;12.96;84.17;99360.08;1641259;86;21062;-68
2022/09/17 04:06:13;;;;;;;9.43;6.00;;;;;;;12.97;84.32;99351.59;1634736;86;21067;-68
2022/09/17 04:08:43;;;;;;;10.90;6.17;;;;;;;12.96;84.54;99372.45;1633678;87;21071;-67
2022/09/17 04:11:13;;;;;;;9.90;5.80;;;;;;;12.95;84.69;99369.41;1633545;88;21087;-68
2022/09/17 04:13:43;;;;;;;9.18;5.75;;;;;;;12.98;84.94;99378.02;1633409;87;21107;-69
2022/09/17 04:16:12;;;;;;;8.55;5.42;;;;;;;13.02;85.11;99378.41;1608977;89;21067;-68
2022/09/17 04:18:42;;;;;;;9.65;5.62;;;;;;;13.06;85.33;99389.77;1608992;89;21130;-68
2022/09/17 04:21:11;;;;;;;8.55;6.00;;;;;;;13.04;85.56;99379.01;1608946;89;21058;-69
2022/09/17 04:23:41;;;;;;;9.08;5.78;;;;;;;13.06;85.78;99391.98;1609156;89;21111;-70
2022/09/17 04:26:12;;;;;;;10.23;6.33;;;;;;;13.06;85.91;99390.61;1629546;88;21067;-70
2022/09/17 04:28:42;;;;;;;8.60;5.37;;;;;;;13.05;85.95;99392.22;1633765;88;21087;-68
2022/09/17 04:31:13;;;;;;;9.75;5.10;;;;;;;13.09;86.04;99399.75;1633703;88;21086;-69
2022/09/17 04:33:43;;;;;;;7.70;4.90;;;;;;;13.12;85.88;99391.02;1635421;86;21055;-69
2022/09/17 04:36:14;;;;;;;9.95;5.37;;;;;;;13.14;85.79;99397.66;1633635;87;21086;-69
2022/09/17 04:38:49;;;;;;;8.15;6.33;;;;;;;13.14;85.37;99408.13;1633549;88;21095;-69
2022/09/17 04:41:18;;;;;;;11.00;5.87;;;;;;;13.16;85.03;99412.84;1633507;88;21116;-68
2022/09/17 04:43:50;;;;;;;7.78;5.50;;;;;;;13.17;84.80;99417.30;1645389;86;21098;-69
2022/09/17 04:46:20;;;;;;;7.80;5.55;;;;;;;13.22;84.61;99404.21;1636134;86;21086;-70
2022/09/17 04:48:50;;;;;;;8.25;5.20;;;;;;;13.25;84.33;99400.44;1652486;86;21047;-68
2022/09/17 04:51:20;;;;;;;8.38;5.70;;;;;;;13.25;84.03;99394.11;1661953;85;21142;-68
2022/09/17 04:53:50;;;;;;;12.40;5.67;;;;;;;13.27;83.82;99393.33;1662210;86;21074;-68
2022/09/17 04:56:20;;;;;;;12.18;5.67;;;;;;;13.27;83.61;99389.20;1662043;86;21091;-68
2022/09/17 04:58:50;;;;;;;9.18;5.47;;;;;;;13.31;83.44;99379.39;1662069;86;21511;-68
2022/09/17 05:01:19;;;;;;;14.47;6.08;;;;;;;13.35;83.14;99378.37;1660459;86;21023;-69
2022/09/17 05:03:49;;;;;;;9.75;5.78;;;;;;;13.39;82.93;99380.94;1640928;86;21553;-68
2022/09/17 05:06:21;;;;;;;9.28;6.00;;;;;;;13.42;82.60;99381.29;1635736;86;21060;-67
2022/09/17 05:08:51;;;;;;;10.10;6.90;;;;;;;13.46;82.38;99398.16;1633855;88;21027;-69
2022/09/17 05:11:21;;;;;;;13.95;7.05;;;;;;;13.49;82.33;99394.92;1633792;88;21088;-70
2022/09/17 05:13:51;;;;;;;10.75;6.35;;;;;;;13.50;82.43;99402.94;1633879;88;21083;-69
2022/09/17 05:16:22;;;;;;;8.78;5.67;;;;;;;13.54;82.47;99402.75;1634346;86;21075;-69
2022/09/17 05:18:51;;;;;;;11.08;5.85;;;;;;;13.55;82.37;99396.70;1633938;88;21483;-67
2022/09/17 05:21:21;;;;;;;9.15;6.30;;;;;;;13.56;82.43;99392.34;1634008;88;21059;-69
2022/09/17 05:23:51;;;;;;;9.20;6.17;;;;;;;13.59;82.42;99390.48;1634684;88;21515;-68
2022/09/17 05:26:20;;;;;;;10.18;6.28;;;;;;;13.64;82.23;99399.38;1635155;88;21506;-67
2022/09/17 05:28:50;;;;;;;10.38;5.65;;;;;;;13.69;82.16;99400.06;1635118;88;21090;-70
2022/09/17 05:31:21;;;;;;;8.23;5.65;;;;;;;13.73;82.00;99394.38;1635192;88;21070;-69
2022/09/17 05:33:51;;;;;;;8.38;5.60;;;;;;;13.79;81.99;99397.53;1635187;88;21054;-67
2022/09/17 05:36:21;;;;;;;17.82;12.33;;;;;;;13.85;81.77;99402.06;1634739;86;21508;-68
2022/09/17 05:38:51;;;;;;;13.65;7.50;;;;;;;13.87;81.43;99398.52;1633978;88;21139;-67
2022/09/17 05:41:20;;;;;;;15.48;7.30;;;;;;;13.89;81.12;99397.20;1633865;86;21066;-71
2022/09/17 05:43:50;;;;;;;17.90;7.33;;;;;;;13.92;80.91;99398.63;1633779;88;21474;-70
2022/09/17 05:46:19;;;;;;;12.65;6.75;;;;;;;13.95;80.66;99393.47;1633871;87;21689;-69
2022/09/17 05:48:50;;;;;;;11.78;6.40;;;;;;;13.98;80.43;99393.52;1633674;86;21055;-69
2022/09/17 05:51:20;;;;;;;8.50;5.78;;;;;;;14.00;80.17;99387.23;1633915;88;21051;-68
2022/09/17 05:53:50;;;;;;;10.38;5.60;;;;;;;13.99;79.99;99388.31;1633720;86;21106;-69
2022/09/17 05:56:20;;;;;;;11.57;5.20;;;;;;;14.02;79.87;99394.70;1633812;88;21048;-68
2022/09/17 05:58:55;;;;;;;11.83;5.47;;;;;;;14.04;79.73;99396.67;1633822;88;21051;-69
2022/09/17 06:01:25;;;;;;;11.40;4.92;;;;;;;14.05;79.43;99394.75;1633777;86;21299;-70
2022/09/17 06:03:55;;;;;;;7.45;4.72;;;;;;;14.06;79.28;99406.91;1633794;88;21087;-69
2022/09/17 06:06:28;;;;;;;9.23;4.95;;;;;;;14.09;79.09;99419.35;1633841;88;21092;-70
2022/09/17 06:09:01;;;;;;;10.65;5.70;;;;;;;14.12;78.80;99413.35;1633748;86;21086;-69
2022/09/17 06:11:30;;;;;;;10.32;5.28;;;;;;;14.15;78.63;99406.81;1634009;86;21491;-69
2022/09/17 06:14:01;;;;;;;7.95;5.12;;;;;;;14.16;78.25;99408.48;1633843;88;21527;-69
2022/09/17 06:16:32;;;;;;;9.28;4.72;;;;;;;14.19;78.19;99409.37;1638794;86;21054;-70
2022/09/17 06:19:03;;;;;;;8.48;5.42;;;;;;;14.22;78.00;99407.50;1633924;88;21482;-70
2022/09/17 06:21:33;;;;;;;7.15;5.25;;;;;;;14.26;77.89;99409.22;1635789;86;21075;-69
2022/09/17 06:24:03;;;;;;;13.88;6.03;;;;;;;14.26;77.79;99400.95;1634106;88;21118;-71
2022/09/17 06:26:33;;;;;;;7.60;5.60;;;;;;;14.27;77.77;99395.20;1633693;86;21439;-70
2022/09/17 06:29:03;;;;;;;9.00;5.15;;;;;;;14.30;77.84;99377.34;1633853;86;21106;-70
2022/09/17 06:31:33;;;;;;;9.78;5.00;;;;;;;14.33;77.66;99389.27;1633771;88;21082;-69
2022/09/17 06:34:04;;;;;;;11.22;5.95;;;;;;;14.37;77.53;99396.51;1634339;86;21043;-69
2022/09/17 06:36:36;;;;;;;7.72;5.60;;;;;;;14.42;77.53;99402.11;1634391;86;21043;-67
2022/09/17 06:39:06;;;;;;;17.60;6.87;;;;;;;14.48;77.37;99403.91;1633751;86;21063;-68
2022/09/17 06:41:36;;;;;;;12.68;5.97;;;;;;;14.53;77.38;99402.62;1633809;87;21504;-70
2022/09/17 06:44:06;;;;;;;11.18;5.50;;;;;;;14.57;77.52;99407.94;1633771;86;21031;-68
2022/09/17 06:46:36;;;;;;;11.35;5.37;;;;;;;14.63;77.16;99406.95;1633886;88;21560;-70
2022/09/17 06:49:05;;;;;;;12.23;5.83;;;;;;;14.69;76.96;99401.81;1633469;87;21050;-69
2022/09/17 06:51:35;;;;;;;12.05;5.80;;;;;;;14.72;76.81;99412.34;1633566;88;21075;-70
2022/09/17 06:54:06;;;;;;;11.93;5.85;;;;;;;14.74;76.72;99407.96;1633615;86;21075;-71
2022/09/17 06:56:37;;;;;;;11.38;5.85;;;;;;;14.78;76.70;99414.65;1657279;86;21102;-69
2022/09/17 06:59:08;;;;;;;15.10;6.83;;;;;;;14.79;76.49;99418.53;1620820;88;21047;-69
2022/09/17 07:01:39;;;;;;;12.43;5.72;;;;;;;14.80;76.37;99418.83;1633516;88;21115;-70
2022/09/17 07:04:08;;;;;;;9.88;5.60;;;;;;;14.82;76.29;99414.45;1633549;88;21051;-68
2022/09/17 07:06:39;;;;;;;12.33;5.60;;;;;;;14.85;76.19;99416.16;1633635;88;21075;-70
2022/09/17 07:09:09;;;;;;;10.60;6.22;;;;;;;14.87;76.23;99413.15;1633531;88;21135;-70
2022/09/17 07:11:39;;;;;;;10.50;6.10;;;;;;;14.92;76.34;99410.48;1633967;88;21678;-71
2022/09/17 07:14:09;;;;;;;9.78;5.97;;;;;;;14.96;76.21;99419.13;1647243;86;21129;-70
2022/09/17 07:16:40;;;;;;;7.97;5.42;;;;;;;14.96;76.09;99414.98;1635978;86;21536;-70
2022/09/17 07:19:10;;;;;;;11.08;6.00;;;;;;;15.01;76.11;99420.04;1633418;88;21051;-70
2022/09/17 07:21:41;;;;;;;11.20;6.30;;;;;;;15.05;76.00;99414.86;1633712;88;21059;-69
2022/09/17 07:24:11;;;;;;;16.62;6.53;;;;;;;15.09;75.87;99414.64;1633688;88;21083;-69
2022/09/17 07:26:41;;;;;;;10.40;6.95;;;;;;;15.11;75.67;99411.93;1633633;88;21063;-69
2022/09/17 07:29:11;;;;;;;15.40;6.78;;;;;;;15.15;75.75;99413.64;1633455;88;21075;-69
2022/09/17 07:31:41;;;;;;;12.78;6.40;;;;;;;15.17;75.78;99412.30;1646404;86;21098;-69
2022/09/17 07:34:11;;;;;;;11.15;6.25;;;;;;;15.18;75.75;99411.76;1661828;86;21109;-70
2022/09/17 07:36:43;;;;;;;10.28;6.70;;;;;;;15.20;75.74;99399.92;1634390;86;21521;-69
2022/09/17 07:39:14;;;;;;;12.05;6.70;;;;;;;15.22;75.82;99403.27;1608724;88;21106;-69
2022/09/17 07:41:44;;;;;;;13.13;6.80;;;;;;;15.25;75.91;99408.83;1633540;88;21070;-70
2022/09/17 07:44:14;;;;;;;15.63;7.10;;;;;;;15.26;75.99;99409.95;1633455;88;21845;-69
2022/09/17 07:46:43;;;;;;;12.20;6.85;;;;;;;15.30;76.13;99411.12;1634128;86;21118;-68
2022/09/17 07:49:15;;;;;;;18.32;7.28;;;;;;;15.35;75.94;99406.22;1655161;85;21284;-71
2022/09/17 07:51:44;;;;;;;11.90;6.85;;;;;;;15.39;75.59;99401.86;1633743;86;21158;-70
2022/09/17 07:54:14;;;;;;;11.57;6.03;;;;;;;15.42;75.01;99392.53;1634177;88;21094;-71
2022/09/17 07:56:43;;;;;;;10.10;5.55;;;;;;;15.48;74.40;99397.58;1633525;88;21143;-69
2022/09/17 07:59:13;;;;;;;7.22;4.28;;;;;;;15.52;73.93;99394.60;1633989;88;21083;-71
2022/09/17 08:01:42;;;;;;;9.63;4.30;;;;;;;15.57;73.32;99393.84;1633102;86;21549;-71
2022/09/17 08:04:12;;;;;;;8.95;3.87;;;;;;;15.62;72.83;99392.59;1637237;86;21067;-72
2022/09/17 08:06:41;;;;;;;9.13;4.47;;;;;;;15.65;72.34;99390.15;1653029;86;21130;-72
2022/09/17 08:09:11;;;;;;;7.22;4.05;;;;;;;15.70;72.43;99392.14;1633688;88;21066;-70
2022/09/17 08:11:42;;;;;;;8.05;4.00;;;;;;;15.74;72.26;99398.83;1634686;88;21047;-70
2022/09/17 08:14:14;;;;;;;7.22;4.05;;;;;;;15.77;71.88;99401.08;1653745;86;21094;-70
2022/09/17 08:16:46;;;;;;;13.15;4.60;;;;;;;15.79;72.00;99407.18;1650047;85;21029;-72
2022/09/17 08:19:16;;;;;;;12.88;6.12;;;;;;;15.85;72.04;99408.92;1634782;87;21054;-71
2022/09/17 08:21:46;;;;;;;10.30;4.37;;;;;;;15.88;72.17;99398.73;1634544;88;21093;-71
2022/09/17 08:24:15;;;;;;;10.13;4.80;;;;;;;15.92;72.30;99404.03;1639387;86;21502;-70
2022/09/17 08:26:44;;;;;;;16.57;5.60;;;;;;;15.91;72.23;99394.08;1661860;86;21206;-71
2022/09/17 08:29:15;;;;;;;10.68;5.75;;;;;;;15.92;72.46;99390.22;1661901;86;21524;-72
2022/09/17 08:31:44;;;;;;;12.63;6.10;;;;;;;15.95;72.59;99406.28;1661748;86;21110;-70
2022/09/17 08:34:13;;;;;;;12.05;6.55;;;;;;;15.92;72.85;99405.42;1643048;86;21092;-72
2022/09/17 08:36:45;;;;;;;8.78;6.08;;;;;;;15.87;73.40;99406.73;1634771;86;21117;-71
2022/09/17 08:39:14;;;;;;;16.30;7.22;;;;;;;15.86;73.84;99421.64;1634985;86;21062;-72
2022/09/17 08:42:07;;;;;;;13.35;6.10;;;;;;;15.80;74.34;99416.59;1634996;88;21553;-71
2022/09/17 08:44:42;;;;;;;13.15;6.58;;;;;;;15.76;74.61;99414.05;1644487;86;21047;-71
2022/09/17 08:47:26;;;;;;;11.40;6.10;;;;;;;15.72;74.82;99410.67;1661190;86;21487;-71
2022/09/17 08:49:57;;;;;;;11.10;5.83;;;;;;;15.68;74.96;99407.59;1661780;86;21248;-71
2022/09/17 08:53:01;;;;;;;8.45;5.55;;;;;;;15.67;74.79;99400.94;1636776;86;21121;-70
2022/09/17 08:55:46;;;;;;;9.38;5.70;;;;;;;15.67;74.90;99395.42;1635086;88;21138;-71
2022/09/17 08:58:34;;;;;;;13.20;6.60;;;;;;;15.69;74.95;99398.77;1634477;86;21095;-71
2022/09/17 09:01:20;;;;;;;10.38;5.72;;;;;;;15.67;74.71;99400.39;1633754;86;21055;-69
2022/09/17 09:04:33;;;;;;;11.28;5.80;;;;;;;15.66;74.73;99396.51;1633860;86;21114;-70
2022/09/17 09:07:19;;;;;;;9.35;5.08;;;;;;;15.67;74.48;99407.30;1609102;87;21557;-69
2022/09/17 09:10:03;;;;;;;8.28;4.87;;;;;;;15.69;74.00;99409.26;1633767;88;21077;-69
2022/09/17 09:12:34;;;;;;;9.43;5.70;;;;;;;15.71;73.96;99404.86;1630832;88;21090;-69
2022/09/17 09:15:08;;;;;;;12.05;5.00;;;;;;;15.72;73.87;99406.53;1633750;88;21102;-69
2022/09/17 09:17:43;;;;;;;10.95;5.05;;;;;;;15.70;73.87;99408.72;1633635;86;21582;-71
2022/09/17 09:20:21;;;;;;;8.03;4.78;;;;;;;15.68;74.25;99406.20;1640869;86;21083;-70
2022/09/17 09:22:51;;;;;;;11.35;4.83;;;;;;;15.71;74.33;99402.09;1634894;88;21102;-69
2022/09/17 09:25:28;;;;;;;8.78;4.40;;;;;;;15.75;74.32;99404.64;1633677;86;21491;-68
2022/09/17 09:28:06;;;;;;;6.40;4.33;;;;;;;15.80;74.08;99404.70;1633566;88;21118;-69
2022/09/17 09:30:41;;;;;;;10.82;4.60;;;;;;;15.83;73.81;99402.81;1633894;88;21131;-71
2022/09/17 09:33:16;;;;;;;10.13;4.60;;;;;;;15.87;73.49;99398.45;1633649;86;21087;-69
2022/09/17 09:35:46;;;;;;;7.67;4.50;;;;;;;15.86;73.11;99405.06;1633808;88;21129;-68
2022/09/17 09:38:42;;;;;;;7.05;5.40;;;;;;;15.87;72.94;99410.88;1633601;88;21110;-68
2022/09/17 09:41:16;;;;;;;6.85;4.30;;;;;;;15.87;72.73;99419.16;1633655;86;21115;-69
2022/09/17 09:44:03;;;;;;;5.72;4.03;;;;;;;15.88;72.54;99416.69;1634555;86;21097;-68
2022/09/17 09:46:48;;;;;;;11.00;4.40;;;;;;;15.89;72.31;99424.44;1633745;88;21050;-69
2022/09/17 09:49:47;;;;;;;10.68;4.10;;;;;;;15.90;72.25;99415.89;1633533;87;21047;-70
2022/09/17 09:52:45;;;;;;;10.28;4.70;;;;;;;15.94;72.14;99413.45;1650592;86;21479;-68
2022/09/17 09:55:44;;;;;;;7.75;4.20;;;;;;;15.96;72.15;99400.21;1649545;86;21050;-70
2022/09/17 09:58:24;;;;;;;5.70;3.80;;;;;;;15.98;71.87;99415.98;1632865;86;21035;-70
2022/09/17 10:00:53;;;;;;;10.80;5.92;;;;;;;16.00;71.75;99425.69;1634839;88;21110;-69
2022/09/17 10:03:31;;;;;;;7.97;4.08;;;;;;;16.03;71.51;99419.65;1633822;88;21106;-69
2022/09/17 10:06:02;;;;;;;12.03;4.70;;;;;;;16.06;71.42;99423.83;1633703;88;21114;-69
2022/09/17 10:08:37;;;;;;;5.20;3.17;;;;;;;16.09;71.49;99420.55;1633660;87;21059;-69
2022/09/17 10:11:14;;;;;;;6.12;3.05;;;;;;;16.11;71.26;99420.58;1633682;86;21075;-68
2022/09/17 10:13:45;;;;;;;4.78;3.37;;;;;;;16.14;71.12;99419.23;1633799;86;21062;-70
2022/09/17 10:16:28;;;;;;;8.25;3.40;;;;;;;16.18;71.10;99421.21;1633563;87;21094;-68
2022/09/17 10:19:13;;;;;;;5.37;3.50;;;;;;;16.20;70.66;99422.88;1633572;86;21087;-66
2022/09/17 10:21:44;;;;;;;6.12;3.20;;;;;;;16.20;70.54;99429.25;1633669;88;21102;-66
2022/09/17 10:24:29;;;;;;;5.55;3.30;;;;;;;16.23;70.16;99422.37;1633738;86;21102;-66
2022/09/17 10:27:08;;;;;;;6.15;3.50;;;;;;;16.22;69.92;99417.93;1633671;88;21135;-67
2022/09/17 10:30:10;;;;;;;5.17;3.30;;;;;;;16.21;69.74;99414.87;1633577;88;21051;-66
2022/09/17 10:32:40;;;;;;;9.90;4.28;;;;;;;16.22;69.83;99411.02;1633763;88;21103;-66
2022/09/17 10:35:18;;;;;;;7.50;3.47;;;;;;;16.23;69.55;99409.93;1659498;86;21070;-68
2022/09/17 10:37:50;;;;;;;5.28;3.30;;;;;;;16.20;69.43;99417.36;1661710;86;21115;-67
2022/09/17 10:40:27;;;;;;;6.28;3.95;;;;;;;16.21;69.70;99412.12;1661878;86;21087;-68
2022/09/17 10:43:16;;;;;;;12.75;4.70;;;;;;;16.17;69.53;99404.89;1662027;86;21495;-68
2022/09/17 10:45:55;;;;;;;5.40;3.37;;;;;;;16.17;69.73;99409.87;1661951;86;21053;-67
2022/09/17 10:48:28;;;;;;;6.10;3.47;;;;;;;16.16;69.60;99404.60;1660819;85;21114;-69
2022/09/17 10:50:57;;;;;;;8.05;3.60;;;;;;;16.16;69.76;99413.73;1659664;86;21074;-69
2022/09/17 10:53:26;;;;;;;3.98;2.95;;;;;;;16.20;69.94;99406.30;1659790;86;21059;-69
2022/09/17 10:56:19;;;;;;;6.78;3.50;;;;;;;16.20;70.13;99410.45;1659715;86;21521;-69
2022/09/17 10:59:11;;;;;;;9.45;3.37;;;;;;;16.22;70.21;99412.41;1641229;86;21066;-69
2022/09/17 11:02:12;;;;;;;12.03;6.10;;;;;;;16.28;70.25;99421.08;1632456;87;21086;-70
2022/09/17 11:04:47;;;;;;;7.85;3.72;;;;;;;16.33;69.97;99426.11;1633238;88;21660;-68
2022/09/17 11:07:43;;;;;;;5.67;3.77;;;;;;;16.37;70.32;99413.45;1633101;88;21046;-65
2022/09/17 11:10:29;;;;;;;7.75;3.85;;;;;;;16.42;70.85;99402.98;1650340;86;21087;-68
2022/09/17 11:13:23;;;;;;;5.07;3.53;;;;;;;16.45;71.23;99399.16;1651694;86;21146;-68
2022/09/17 11:16:28;;;;;;;6.55;4.25;;;;;;;16.45;70.91;99395.00;1659952;86;21058;-67
2022/09/17 11:19:41;;;;;;;10.90;4.28;;;;;;;16.44;71.39;99398.03;1637231;86;21023;-67
2022/09/17 11:22:31;;;;;;;8.90;4.47;;;;;;;16.44;72.29;99400.80;1631598;88;21519;-69
2022/09/17 11:25:27;;;;;;;8.55;4.45;;;;;;;16.42;73.86;99398.84;1631156;87;21523;-68
2022/09/17 11:28:07;;;;;;;5.65;4.25;;;;;;;16.40;74.31;99396.34;1631495;88;22125;-68
2022/09/17 11:30:57;;;;;;;10.80;6.25;;;;;;;16.38;74.42;99393.55;1615981;88;21039;-68
2022/09/17 11:33:55;;;;;;;12.10;7.40;;;;;;;16.36;75.08;99385.51;1631145;88;21114;-67
2022/09/17 11:36:38;;;;;;;6.97;4.80;;;;;;;16.42;75.33;99379.48;1631805;88;21055;-68
2022/09/17 11:39:21;;;;;;;8.95;4.90;;;;;;;16.45;74.82;99381.18;1648171;86;21083;-68
2022/09/17 11:41:51;;;;;;;7.80;4.85;;;;;;;16.47;75.02;99380.92;1643728;86;21091;-67
2022/09/17 11:44:34;;;;;;;7.10;4.95;;;;;;;16.45;75.32;99372.89;1659677;86;21550;-67
2022/09/17 11:47:21;;;;;;;6.22;4.90;;;;;;;16.46;75.61;99355.75;1659820;86;21106;-69
2022/09/17 11:50:11;;;;;;;7.00;5.05;;;;;;;16.47;75.91;99352.72;1659530;85;21095;-66
2022/09/17 11:53:05;;;;;;;8.03;4.42;;;;;;;16.49;76.43;99349.70;1656588;86;21059;-67
2022/09/17 11:55:48;;;;;;;9.10;4.60;;;;;;;16.51;76.85;99348.88;1646177;86;21067;-68
2022/09/17 11:58:24;;;;;;;5.97;4.58;;;;;;;16.51;76.29;99348.88;1644210;86;21051;-65
2022/09/17 12:01:00;;;;;;;10.48;5.20;;;;;;;16.51;76.14;99364.09;1632982;88;21026;-66
2022/09/17 12:03:52;;;;;;;10.13;5.55;;;;;;;16.51;75.88;99350.27;1632629;87;21119;-66
2022/09/17 12:06:35;;;;;;;10.95;5.40;;;;;;;16.53;75.96;99344.47;1632579;88;21059;-65
2022/09/17 12:09:15;;;;;;;7.83;5.58;;;;;;;16.54;76.17;99340.06;1632730;86;21082;-68
2022/09/17 12:12:16;;;;;;;7.85;5.08;;;;;;;16.52;76.24;99335.34;1616625;88;21028;-66
2022/09/17 12:15:02;;;;;;;6.87;5.10;;;;;;;16.52;76.26;99321.52;1627395;87;21087;-67
2022/09/17 12:17:45;;;;;;;11.12;6.15;;;;;;;16.51;76.17;99338.37;1627826;87;21028;-68